Coimbatore Airport
VOCB : now visible

Airfield :











YOU CAN JOIN US ON...

 
LOGIN :

Register | Disclaimer

   EN    FR    IT 

 









Legend :    VFR   Marginal VFR   IFR   Intensive IFR   Very Intensive IFR
Visi :
Ceiling :
>= 8 km
>= 3000ft
5 to 8 km
1000 to 3000 ft
1500m to 5 km
500 to 1000 ft
800 to 1500m
200 to 500 ft
< 800m
< 200 ft
Symbols :   Thunderstorms  Fog  Heavy snow  Heavy precipitations  Wind > 20 kt






- Airport Elevation : 1324 ft
- IATA code : CJB


VOCB - Coimbatore

CURRENT METAR :
  • 240530Z 09010KT 5000 HZ SCT015 29/17 Q1016 NOSIG

EXPIRED METARs :
  • 240500Z 05006KT 5000 HZ SCT015 28/18 Q1016 NOSIG
  • 240430Z 05008KT 4000 HZ SCT015 28/18 Q1017 BECMG 5000 HZ
  • 240400Z 07008KT 4000 HZ SCT015 27/19 Q1017 NOSIG
  • 240330Z VRB03KT 3500 BR SCT015 26/20 Q1017 NOSIG
  • 240300Z VRB03KT 3000 BR FEW015 24/20 Q1017 NOSIG

TAF TAF VOCB
Valid from the 24 at 06:00 until the 25 at 12:00 UTC


240600Z 2406/2512 09010KT 6000 SCT015 BKN080
BECMG 2415/2416 5000 HZ
BECMG 2421/2422 02005KT 4000 BR
BECMG 2505/2506 09010KT 6000



MET'MAP, your aeronautical weather chart ! - Copyright ORBIFLY December 2007 - Disclaimer

ORBIFLY MET'MAP TEAM :

Programming & Development : Alexandra Zaïnal
Concept & original design : Baudouin d'Aumeries
Assistance for programming : Marc-Olivier Méhu
Technical & hardware support : Manuel Goepfert

Contact : metmap@orbifly.com




SOURCES & CREDITS :

   NOAA       Earth
Advisory